Terminal Aerodrome Forecast
Issued by NWS Central Illinois

Home | Current Version | Previous Version | Text Only | Print | Product List | Glossary On
Versions: 1 2 3 4 5 6 7 8 9 10 11 12 13 14 15 16
000
FTUS43 KILX 231700
TAFSPI
TAF
KSPI 231731Z 2318/2418 12010KT P6SM SCT100
     FM231900 10010KT P6SM BKN100
     FM240200 12012KT P6SM BKN050
     FM241400 15015KT P6SM VCSH BKN040=

USA.gov is the U.S. government's official web portal to all federal, state and local government web resources and services.